createdAt,value
2019-05-06T00:01:34.079Z,5.74
2019-05-06T00:04:04.877Z,5.79
2019-05-06T00:06:34.646Z,5.88
2019-05-06T00:09:05.446Z,5.95
2019-05-06T00:11:34.689Z,5.82
2019-05-06T00:14:04.543Z,6.08
2019-05-06T00:16:34.742Z,6.13
2019-05-06T00:19:04.983Z,6.17
2019-05-06T00:21:35.586Z,6.15
2019-05-06T00:24:04.786Z,6.18
2019-05-06T00:26:44.814Z,6.18
2019-05-06T00:29:15.330Z,6.26
2019-05-06T00:31:44.068Z,6.28
2019-05-06T00:34:13.853Z,6.27
2019-05-06T00:36:43.642Z,6.28
2019-05-06T00:39:16.820Z,6.29
2019-05-06T00:41:46.829Z,6.29
2019-05-06T00:44:15.267Z,6.28
2019-05-06T00:46:43.794Z,6.24
2019-05-06T00:49:14.361Z,6.22
2019-05-06T00:51:43.988Z,6.20
2019-05-06T00:54:16.882Z,6.18
2019-05-06T00:56:45.247Z,6.16
2019-05-06T00:59:14.339Z,6.17
2019-05-06T01:01:44.525Z,6.17
2019-05-06T01:04:13.932Z,6.17
2019-05-06T01:06:44.236Z,6.16
2019-05-06T01:09:14.931Z,6.16
2019-05-06T01:11:44.993Z,6.19
2019-05-06T01:14:17.763Z,6.18
2019-05-06T01:16:46.126Z,6.19
2019-05-06T01:19:14.591Z,6.25
2019-05-06T01:21:44.692Z,6.27
2019-05-06T01:24:14.700Z,6.29
2019-05-06T01:26:44.371Z,6.31
2019-05-06T01:29:14.601Z,6.32
2019-05-06T01:31:46.192Z,6.32
2019-05-06T01:34:15.019Z,6.32
2019-05-06T01:36:43.809Z,6.33
2019-05-06T01:39:20.079Z,6.34
2019-05-06T01:41:50.097Z,6.29
2019-05-06T01:44:18.968Z,6.30
2019-05-06T01:46:47.363Z,6.29
2019-05-06T01:49:15.826Z,6.28
2019-05-06T01:51:44.214Z,6.27
2019-05-06T01:54:14.198Z,6.26
2019-05-06T01:56:44.416Z,6.23
2019-05-06T01:59:13.984Z,6.23
2019-05-06T02:01:56.470Z,6.20
2019-05-06T02:04:13.803Z,6.19
2019-05-06T02:06:43.969Z,6.19
2019-05-06T02:09:15.356Z,6.18
2019-05-06T02:11:45.166Z,6.15
2019-05-06T02:14:14.110Z,6.13
2019-05-06T02:16:43.676Z,6.10
2019-05-06T02:19:12.139Z,6.08
2019-05-06T02:21:43.836Z,6.07
2019-05-06T02:24:19.809Z,5.99
2019-05-06T02:26:48.213Z,5.99
2019-05-06T02:29:18.259Z,6.07
2019-05-06T02:32:00.794Z,6.08
2019-05-06T02:34:45.506Z,6.07
2019-05-06T02:37:16.893Z,6.08
2019-05-06T02:39:45.269Z,6.09
2019-05-06T02:42:14.103Z,6.10
2019-05-06T02:44:44.113Z,6.08
2019-05-06T02:47:22.865Z,6.10
2019-05-06T02:49:56.419Z,6.11
2019-05-06T02:52:24.884Z,6.12
2019-05-06T02:54:53.994Z,6.13
2019-05-06T02:57:24.173Z,6.13
2019-05-06T02:59:55.266Z,6.14
2019-05-06T03:02:37.958Z,6.17
2019-05-06T03:04:54.439Z,6.17
2019-05-06T03:07:23.446Z,6.17
2019-05-06T03:09:53.212Z,6.19
2019-05-06T03:12:22.867Z,6.20
2019-05-06T03:14:53.514Z,6.20
2019-05-06T03:17:23.792Z,6.21
2019-05-06T03:19:53.780Z,6.14
2019-05-06T03:22:34.520Z,6.19
2019-05-06T03:25:07.554Z,6.18
2019-05-06T03:27:35.918Z,6.21
2019-05-06T03:30:06.880Z,6.20
2019-05-06T03:32:48.229Z,6.17
2019-05-06T03:35:27.499Z,6.15
2019-05-06T03:37:38.968Z,6.15
2019-05-06T03:40:07.486Z,6.14
2019-05-06T03:42:35.857Z,6.13
2019-05-06T03:45:08.656Z,6.13
2019-05-06T03:47:38.664Z,6.04
2019-05-06T03:50:07.371Z,6.12
2019-05-06T03:52:35.781Z,6.11
2019-05-06T03:55:04.998Z,6.09
2019-05-06T03:57:36.189Z,5.91
2019-05-06T04:00:06.397Z,6.07
2019-05-06T04:02:39.406Z,5.89
2019-05-06T04:05:06.324Z,6.09
2019-05-06T04:07:34.702Z,6.10
2019-05-06T04:10:04.041Z,6.14
2019-05-06T04:12:34.604Z,6.16
2019-05-06T04:15:04.223Z,6.19
2019-05-06T04:17:53.465Z,6.19
2019-05-06T04:20:37.422Z,6.17
2019-05-06T04:23:14.527Z,6.18
2019-05-06T04:25:43.899Z,6.16
2019-05-06T04:28:19.859Z,6.17
2019-05-06T04:30:49.378Z,6.17
2019-05-06T04:33:17.940Z,6.19
2019-05-06T04:35:46.384Z,6.21
2019-05-06T04:38:14.773Z,6.25
2019-05-06T04:40:44.152Z,6.28
2019-05-06T04:43:13.554Z,6.35
2019-05-06T04:45:43.842Z,6.40
2019-05-06T04:48:14.410Z,6.37
2019-05-06T04:50:44.998Z,6.51
2019-05-06T04:53:13.910Z,6.62
2019-05-06T04:55:43.569Z,6.71
2019-05-06T04:58:13.700Z,6.74
2019-05-06T05:00:44.602Z,6.78
2019-05-06T05:03:14.035Z,6.85
2019-05-06T05:05:44.909Z,6.91
2019-05-06T05:08:13.517Z,7.00
2019-05-06T05:11:00.286Z,7.00
2019-05-06T05:13:32.768Z,7.02
2019-05-06T05:16:05.249Z,7.09
2019-05-06T05:18:35.318Z,7.13
2019-05-06T05:21:04.491Z,7.19
2019-05-06T05:23:33.016Z,7.24
2019-05-06T05:26:04.968Z,7.35
2019-05-06T05:28:35.157Z,7.42
2019-05-06T05:31:04.475Z,7.49
2019-05-06T05:33:33.054Z,7.52
2019-05-06T05:36:02.073Z,7.66
2019-05-06T05:38:32.048Z,7.73
2019-05-06T05:41:03.074Z,7.78
2019-05-06T05:43:45.533Z,7.72
2019-05-06T05:46:14.034Z,7.75
2019-05-06T05:49:03.153Z,7.76
2019-05-06T05:51:32.783Z,7.73
2019-05-06T05:54:02.227Z,7.75
2019-05-06T05:56:32.897Z,7.76
2019-05-06T05:59:03.252Z,7.84
2019-05-06T06:01:32.657Z,7.89
2019-05-06T06:04:03.119Z,7.95
2019-05-06T06:06:33.253Z,7.87
2019-05-06T06:09:03.088Z,7.82
2019-05-06T06:11:33.417Z,7.76
2019-05-06T06:14:03.495Z,7.77
2019-05-06T06:16:45.571Z,7.83
2019-05-06T06:19:15.621Z,7.89
2019-05-06T06:21:54.819Z,7.95
2019-05-06T06:24:24.834Z,7.97
2019-05-06T06:26:53.205Z,7.95
2019-05-06T06:29:22.778Z,8.02
2019-05-06T06:31:53.070Z,8.09
2019-05-06T06:34:36.468Z,8.07
2019-05-06T06:37:22.686Z,8.06
2019-05-06T06:39:52.702Z,8.19
2019-05-06T06:42:22.218Z,8.38
2019-05-06T06:44:52.077Z,8.54
2019-05-06T06:47:22.511Z,8.71
2019-05-06T06:49:53.382Z,8.75
2019-05-06T06:52:23.141Z,8.88
2019-05-06T06:54:52.708Z,8.99
2019-05-06T06:57:22.977Z,9.18
2019-05-06T06:59:53.583Z,9.42
2019-05-06T07:02:32.228Z,9.61
2019-05-06T07:05:24.913Z,9.75
2019-05-06T07:07:47.313Z,9.90
2019-05-06T07:10:32.522Z,10.04
2019-05-06T07:13:03.022Z,10.19
2019-05-06T07:15:33.612Z,10.20
2019-05-06T07:18:02.526Z,10.13
2019-05-06T07:20:42.969Z,10.30
2019-05-06T07:23:23.894Z,10.53
2019-05-06T07:25:54.030Z,10.70
2019-05-06T07:28:24.365Z,10.79
2019-05-06T07:30:53.726Z,10.86
2019-05-06T07:33:22.960Z,10.98
2019-05-06T07:35:52.978Z,11.11
2019-05-06T07:38:23.207Z,11.18
2019-05-06T07:40:53.425Z,11.41
2019-05-06T07:43:38.409Z,11.45
2019-05-06T07:46:14.289Z,11.48
2019-05-06T07:48:42.972Z,11.57
2019-05-06T07:51:12.435Z,11.70
2019-05-06T07:53:42.712Z,11.85
2019-05-06T07:56:12.625Z,11.95
2019-05-06T07:58:43.330Z,12.05
2019-05-06T08:01:13.537Z,12.16
2019-05-06T08:03:42.892Z,12.45
2019-05-06T08:06:13.201Z,12.70
2019-05-06T08:08:43.252Z,12.84
2019-05-06T08:11:12.436Z,12.88
2019-05-06T08:13:43.259Z,12.93
2019-05-06T08:16:13.083Z,12.90
2019-05-06T08:18:42.590Z,13.03
2019-05-06T08:21:17.696Z,13.56
2019-05-06T08:23:47.803Z,13.60
2019-05-06T08:26:17.846Z,13.69
2019-05-06T08:28:46.321Z,13.88
2019-05-06T08:31:16.503Z,14.09
2019-05-06T08:33:44.888Z,14.15
2019-05-06T08:36:15.168Z,14.42
2019-05-06T08:38:56.380Z,14.72
2019-05-06T08:41:25.777Z,14.83
2019-05-06T08:43:54.724Z,14.80
2019-05-06T08:46:23.725Z,14.36
2019-05-06T08:48:52.500Z,14.22
2019-05-06T08:51:34.874Z,14.69
2019-05-06T08:54:22.818Z,15.36
2019-05-06T08:56:52.346Z,15.81
2019-05-06T08:59:21.110Z,15.68
2019-05-06T09:01:53.399Z,14.82
2019-05-06T09:04:22.772Z,14.11
2019-05-06T09:06:53.366Z,13.56
2019-05-06T09:09:22.395Z,13.18
2019-05-06T09:11:53.500Z,13.00
2019-05-06T09:14:23.748Z,12.58
2019-05-06T09:16:53.983Z,12.39
2019-05-06T09:19:24.434Z,12.27
2019-05-06T09:21:54.404Z,12.19
2019-05-06T09:24:23.360Z,12.13
2019-05-06T09:26:56.301Z,12.06
2019-05-06T09:29:32.600Z,12.17
2019-05-06T09:32:15.782Z,12.65
2019-05-06T09:34:52.669Z,13.60
2019-05-06T09:37:23.583Z,14.09
2019-05-06T09:39:53.223Z,14.08
2019-05-06T09:42:23.075Z,13.98
2019-05-06T09:44:53.850Z,13.82
2019-05-06T09:47:23.127Z,13.74
2019-05-06T09:49:53.131Z,13.50
2019-05-06T09:52:23.147Z,13.71
2019-05-06T09:54:55.866Z,14.24
2019-05-06T09:57:26.074Z,14.49
2019-05-06T09:59:54.508Z,14.62
2019-05-06T10:02:23.225Z,14.77
2019-05-06T10:04:52.349Z,14.68
2019-05-06T10:07:22.605Z,14.89
2019-05-06T10:09:52.570Z,14.67
2019-05-06T10:12:21.504Z,14.84
2019-05-06T10:14:52.951Z,15.23
2019-05-06T10:17:20.571Z,15.29
2019-05-06T10:19:49.225Z,15.38
2019-05-06T10:22:17.588Z,15.20
2019-05-06T10:24:45.985Z,14.73
2019-05-06T10:27:14.522Z,14.60
2019-05-06T10:29:44.579Z,14.36
2019-05-06T10:32:14.589Z,14.05
2019-05-06T10:34:43.556Z,13.73
2019-05-06T10:37:25.918Z,13.66
2019-05-06T10:40:09.234Z,13.48
2019-05-06T10:42:55.672Z,13.41
2019-05-06T10:45:32.168Z,13.66
2019-05-06T10:48:02.194Z,13.95
2019-05-06T10:50:31.808Z,14.23
2019-05-06T10:53:07.502Z,14.51
2019-05-06T10:55:37.621Z,15.01
2019-05-06T10:58:06.060Z,15.54
2019-05-06T11:00:34.661Z,15.82
2019-05-06T11:03:14.975Z,16.10
2019-05-06T11:05:43.767Z,16.58
2019-05-06T11:08:12.320Z,16.40
2019-05-06T11:10:44.304Z,16.38
2019-05-06T11:13:12.826Z,16.03
2019-05-06T11:15:43.408Z,15.87
2019-05-06T11:18:13.477Z,15.78
2019-05-06T11:20:43.952Z,15.90
2019-05-06T11:23:14.261Z,16.14
2019-05-06T11:25:43.229Z,16.27
2019-05-06T11:28:29.994Z,16.44
2019-05-06T11:31:02.258Z,16.51
2019-05-06T11:33:32.923Z,16.24
2019-05-06T11:36:03.212Z,16.08
2019-05-06T11:38:32.256Z,16.34
2019-05-06T11:41:00.997Z,16.43
2019-05-06T11:43:29.369Z,16.96
2019-05-06T11:45:59.258Z,16.96
2019-05-06T11:48:27.658Z,17.18
2019-05-06T11:50:57.720Z,17.21
2019-05-06T11:53:26.128Z,17.23
2019-05-06T11:55:55.149Z,17.30
2019-05-06T11:58:43.584Z,17.13
2019-05-06T12:01:29.797Z,17.12
2019-05-06T12:03:58.172Z,17.08
2019-05-06T12:06:26.549Z,17.35
2019-05-06T12:08:55.121Z,17.17
2019-05-06T12:11:23.909Z,16.79
2019-05-06T12:13:53.336Z,16.44
2019-05-06T12:16:25.928Z,16.22
2019-05-06T12:18:52.917Z,15.83
2019-05-06T12:21:23.136Z,15.53
2019-05-06T12:23:54.070Z,15.29
2019-05-06T12:26:22.375Z,15.18
2019-05-06T12:28:53.166Z,15.05
2019-05-06T12:31:23.392Z,15.24
2019-05-06T12:33:53.233Z,15.28
2019-05-06T12:36:23.237Z,15.38
2019-05-06T12:39:16.047Z,15.51
2019-05-06T12:41:59.105Z,15.60
2019-05-06T12:44:27.496Z,15.63
2019-05-06T12:47:03.700Z,15.98
2019-05-06T12:49:32.652Z,16.07
2019-05-06T12:52:01.267Z,15.95
2019-05-06T12:54:29.678Z,15.70
2019-05-06T12:56:59.457Z,15.56
2019-05-06T12:59:27.908Z,15.70
2019-05-06T13:01:56.343Z,16.02
2019-05-06T13:04:44.379Z,16.08
2019-05-06T13:06:54.903Z,16.23
2019-05-06T13:09:23.394Z,16.07
2019-05-06T13:11:53.260Z,16.14
2019-05-06T13:14:22.541Z,15.86
2019-05-06T13:16:53.237Z,15.63
2019-05-06T13:19:22.886Z,15.44
2019-05-06T13:21:51.388Z,15.46
2019-05-06T13:24:19.878Z,15.19
2019-05-06T13:26:48.297Z,15.13
2019-05-06T13:29:18.365Z,15.03
2019-05-06T13:31:46.732Z,15.07
2019-05-06T13:34:17.126Z,15.05
2019-05-06T13:36:46.125Z,15.05
2019-05-06T13:39:15.404Z,15.03
2019-05-06T13:41:44.314Z,14.95
2019-05-06T13:44:14.647Z,14.89
2019-05-06T13:46:44.723Z,14.77
2019-05-06T13:49:23.480Z,14.74
2019-05-06T13:51:56.191Z,14.96
2019-05-06T13:54:26.097Z,15.24
2019-05-06T13:56:54.489Z,15.35
2019-05-06T13:59:23.019Z,15.59
2019-05-06T14:02:06.678Z,15.71
2019-05-06T14:04:32.720Z,15.78
2019-05-06T14:07:03.488Z,15.89
2019-05-06T14:09:37.258Z,15.99
2019-05-06T14:12:02.582Z,15.85
2019-05-06T14:14:32.218Z,15.54
2019-05-06T14:17:01.076Z,15.28
2019-05-06T14:19:29.408Z,15.17
2019-05-06T14:21:59.380Z,15.33
2019-05-06T14:24:27.911Z,15.36
2019-05-06T14:26:59.096Z,15.30
2019-05-06T14:29:32.927Z,15.16
2019-05-06T14:32:06.288Z,15.26
2019-05-06T14:34:34.655Z,15.25
2019-05-06T14:37:03.406Z,14.99
2019-05-06T14:39:53.876Z,14.74
2019-05-06T14:42:19.226Z,14.67
2019-05-06T14:44:47.665Z,14.60
2019-05-06T14:47:23.306Z,14.61
2019-05-06T14:49:53.384Z,14.56
2019-05-06T14:52:22.589Z,14.55
2019-05-06T14:54:53.361Z,14.66
2019-05-06T14:57:23.268Z,14.55
2019-05-06T14:59:55.212Z,14.48
2019-05-06T15:02:26.021Z,14.37
2019-05-06T15:04:53.772Z,14.16
2019-05-06T15:07:22.216Z,14.04
2019-05-06T15:10:02.564Z,14.00
2019-05-06T15:12:22.945Z,13.84
2019-05-06T15:14:52.751Z,13.73
2019-05-06T15:17:22.964Z,13.67
2019-05-06T15:19:52.737Z,13.60
2019-05-06T15:22:22.589Z,13.56
2019-05-06T15:24:53.978Z,13.58
2019-05-06T15:27:22.974Z,13.62
2019-05-06T15:29:56.161Z,13.59
2019-05-06T15:32:29.545Z,13.58
2019-05-06T15:35:02.661Z,13.56
2019-05-06T15:37:33.862Z,13.51
2019-05-06T15:40:03.005Z,13.47
2019-05-06T15:42:34.264Z,13.40
2019-05-06T15:45:03.770Z,13.33
2019-05-06T15:47:32.663Z,13.27
2019-05-06T15:50:02.536Z,13.23
2019-05-06T15:52:32.442Z,13.13
2019-05-06T15:55:03.257Z,13.17
2019-05-06T15:57:32.763Z,13.18
2019-05-06T16:00:02.530Z,13.13
2019-05-06T16:02:31.186Z,13.15
2019-05-06T16:05:11.217Z,13.15
2019-05-06T16:07:36.770Z,13.14
2019-05-06T16:10:02.483Z,13.14
2019-05-06T16:12:31.107Z,13.15
2019-05-06T16:14:59.666Z,13.18
2019-05-06T16:17:28.053Z,13.21
2019-05-06T16:19:56.452Z,13.25
2019-05-06T16:22:25.299Z,13.30
2019-05-06T16:24:55.340Z,13.28
2019-05-06T16:27:23.737Z,13.26
2019-05-06T16:29:53.665Z,13.19
2019-05-06T16:32:23.555Z,13.14
2019-05-06T16:34:52.572Z,13.16
2019-05-06T16:37:22.539Z,13.15
2019-05-06T16:39:54.180Z,13.14
2019-05-06T16:42:22.454Z,13.11
2019-05-06T16:44:52.681Z,13.10
2019-05-06T16:47:37.734Z,13.11
2019-05-06T16:50:17.601Z,13.10
2019-05-06T16:52:46.011Z,13.04
2019-05-06T16:55:17.169Z,13.04
2019-05-06T16:57:52.614Z,13.05
2019-05-06T17:00:23.624Z,13.02
2019-05-06T17:02:58.820Z,13.01
2019-05-06T17:05:34.742Z,13.01
2019-05-06T17:08:03.399Z,12.97
2019-05-06T17:10:32.327Z,12.93
2019-05-06T17:13:02.941Z,12.92
2019-05-06T17:15:32.578Z,12.92
2019-05-06T17:18:03.011Z,12.96
2019-05-06T17:20:32.554Z,12.98
2019-05-06T17:23:02.890Z,13.01
2019-05-06T17:25:33.443Z,13.07
2019-05-06T17:28:16.497Z,13.12
2019-05-06T17:30:51.717Z,13.11
2019-05-06T17:33:39.145Z,13.00
2019-05-06T17:36:09.341Z,12.83
2019-05-06T17:38:41.831Z,12.60
2019-05-06T17:41:09.693Z,12.45
2019-05-06T17:43:40.890Z,12.31
2019-05-06T17:46:08.502Z,12.21
2019-05-06T17:48:44.485Z,12.13
2019-05-06T17:51:14.695Z,12.08
2019-05-06T17:53:54.866Z,12.02
2019-05-06T17:56:24.968Z,11.95
2019-05-06T17:58:53.479Z,11.85
2019-05-06T18:01:33.355Z,11.76
2019-05-06T18:04:02.360Z,11.67
2019-05-06T18:06:33.005Z,11.59
2019-05-06T18:09:02.540Z,11.44
2019-05-06T18:11:33.205Z,11.44
2019-05-06T18:14:03.839Z,11.35
2019-05-06T18:16:33.838Z,11.26
2019-05-06T18:19:03.133Z,11.11
2019-05-06T18:21:32.100Z,11.11
2019-05-06T18:24:02.839Z,11.04
2019-05-06T18:26:33.415Z,10.97
2019-05-06T18:29:03.687Z,10.90
2019-05-06T18:31:33.433Z,10.82
2019-05-06T18:34:03.002Z,10.72
2019-05-06T18:36:35.404Z,10.63
2019-05-06T18:39:07.383Z,10.53
2019-05-06T18:41:36.392Z,10.42
2019-05-06T18:44:05.152Z,10.36
2019-05-06T18:46:33.591Z,10.27
2019-05-06T18:49:02.636Z,10.20
2019-05-06T18:51:31.350Z,10.10
2019-05-06T18:53:59.898Z,9.98
2019-05-06T18:56:28.458Z,9.87
2019-05-06T18:58:56.814Z,9.77
2019-05-06T19:01:25.193Z,9.68
2019-05-06T19:03:57.374Z,9.59
2019-05-06T19:06:25.889Z,9.52
2019-05-06T19:08:55.908Z,9.44
2019-05-06T19:11:24.952Z,9.35
2019-05-06T19:13:54.829Z,9.30
2019-05-06T19:16:23.231Z,9.25
2019-05-06T19:18:52.435Z,9.19
2019-05-06T19:21:24.320Z,9.12
2019-05-06T19:23:54.798Z,9.06
2019-05-06T19:26:23.391Z,8.99
2019-05-06T19:28:53.345Z,8.94
2019-05-06T19:31:22.910Z,8.88
2019-05-06T19:33:52.660Z,8.84
2019-05-06T19:36:23.322Z,8.80
2019-05-06T19:38:51.312Z,8.77
2019-05-06T19:41:19.661Z,8.75
2019-05-06T19:43:48.191Z,8.75
2019-05-06T19:46:16.565Z,8.72
2019-05-06T19:48:47.755Z,8.72
2019-05-06T19:51:16.138Z,8.73
2019-05-06T19:53:44.510Z,8.73
2019-05-06T19:56:13.071Z,8.73
2019-05-06T19:58:42.845Z,8.75
2019-05-06T20:01:11.444Z,8.77
2019-05-06T20:03:40.251Z,8.75
2019-05-06T20:06:22.610Z,8.70
2019-05-06T20:09:09.264Z,8.63
2019-05-06T20:11:42.584Z,8.55
2019-05-06T20:14:10.965Z,8.44
2019-05-06T20:16:39.399Z,8.36
2019-05-06T20:19:07.760Z,8.25
2019-05-06T20:21:36.264Z,8.15
2019-05-06T20:24:04.850Z,8.03
2019-05-06T20:26:33.264Z,7.93
2019-05-06T20:29:02.290Z,7.81
2019-05-06T20:31:32.133Z,7.71
2019-05-06T20:34:02.272Z,7.62
2019-05-06T20:36:33.190Z,7.53
2019-05-06T20:39:02.559Z,7.43
2019-05-06T20:41:32.867Z,7.33
2019-05-06T20:44:02.702Z,7.27
2019-05-06T20:46:35.779Z,7.19
2019-05-06T20:49:04.428Z,7.10
2019-05-06T20:51:32.979Z,6.99
2019-05-06T20:54:01.369Z,6.93
2019-05-06T20:56:29.841Z,6.84
2019-05-06T20:58:58.200Z,6.75
2019-05-06T21:01:26.611Z,6.69
2019-05-06T21:03:54.977Z,6.61
2019-05-06T21:06:32.206Z,6.55
2019-05-06T21:09:02.151Z,6.47
2019-05-06T21:11:32.565Z,6.43
2019-05-06T21:14:02.215Z,6.41
2019-05-06T21:16:32.048Z,6.34
2019-05-06T21:19:02.939Z,6.27
2019-05-06T21:21:31.920Z,6.21
2019-05-06T21:24:02.076Z,6.14
2019-05-06T21:26:32.885Z,6.09
2019-05-06T21:29:03.226Z,6.07
2019-05-06T21:31:32.585Z,6.07
2019-05-06T21:34:19.000Z,6.07
2019-05-06T21:36:48.933Z,6.07
2019-05-06T21:39:17.424Z,6.09
2019-05-06T21:41:45.967Z,6.11
2019-05-06T21:44:14.333Z,6.13
2019-05-06T21:46:43.076Z,6.13
2019-05-06T21:49:12.271Z,6.13
2019-05-06T21:51:42.653Z,6.10
2019-05-06T21:54:12.610Z,6.08
2019-05-06T21:56:42.449Z,6.05
2019-05-06T21:59:12.959Z,6.04
2019-05-06T22:01:42.946Z,6.00
2019-05-06T22:04:12.839Z,5.97
2019-05-06T22:06:45.249Z,5.94
2019-05-06T22:09:12.553Z,5.88
2019-05-06T22:11:42.373Z,5.81
2019-05-06T22:14:12.265Z,5.64
2019-05-06T22:16:43.693Z,5.64
2019-05-06T22:19:13.727Z,5.63
2019-05-06T22:22:00.101Z,5.56
2019-05-06T22:24:46.619Z,5.51
2019-05-06T22:27:16.138Z,5.47
2019-05-06T22:29:46.026Z,5.45
2019-05-06T22:32:14.931Z,5.41
2019-05-06T22:34:43.627Z,5.41
2019-05-06T22:37:12.562Z,5.38
2019-05-06T22:39:43.580Z,5.33
2019-05-06T22:42:11.748Z,5.27
2019-05-06T22:44:42.710Z,5.21
2019-05-06T22:47:12.208Z,5.17
2019-05-06T22:49:41.013Z,5.15
2019-05-06T22:52:09.376Z,5.11
2019-05-06T22:54:37.761Z,5.10
2019-05-06T22:57:06.142Z,5.09
2019-05-06T22:59:34.539Z,5.04
2019-05-06T23:02:22.619Z,4.98
2019-05-06T23:04:55.955Z,4.87
2019-05-06T23:07:24.422Z,4.76
2019-05-06T23:09:52.848Z,4.71
2019-05-06T23:12:23.137Z,4.65
2019-05-06T23:14:53.085Z,4.60
2019-05-06T23:17:21.406Z,4.58
2019-05-06T23:19:49.825Z,4.52
2019-05-06T23:22:18.198Z,4.45
2019-05-06T23:24:46.614Z,4.39
2019-05-06T23:27:15.002Z,4.31
2019-05-06T23:29:44.948Z,4.25
2019-05-06T23:32:13.978Z,4.19
2019-05-06T23:34:43.248Z,4.12
2019-05-06T23:37:15.079Z,4.07
2019-05-06T23:40:19.600Z,4.02
2019-05-06T23:43:23.976Z,3.97
2019-05-06T23:46:28.662Z,3.92
2019-05-06T23:49:33.117Z,3.89
2019-05-06T23:52:38.061Z,3.88
2019-05-06T23:55:44.093Z,3.83
2019-05-06T23:58:14.516Z,3.80
